sensor_id;sensor_type;location;lat;lon;timestamp;temperature;humidity
18950;DHT22;9608;49.288;8.130;2023-07-20T00:01:48;19.40;99.90
18950;DHT22;9608;49.288;8.130;2023-07-20T00:04:14;19.40;99.90
18950;DHT22;9608;49.288;8.130;2023-07-20T00:06:42;19.40;99.90
18950;DHT22;9608;49.288;8.130;2023-07-20T00:09:09;19.30;99.90
18950;DHT22;9608;49.288;8.130;2023-07-20T00:11:37;19.30;99.90
18950;DHT22;9608;49.288;8.130;2023-07-20T00:14:04;19.20;99.90
18950;DHT22;9608;49.288;8.130;2023-07-20T00:16:31;19.20;99.90
18950;DHT22;9608;49.288;8.130;2023-07-20T00:18:58;19.10;99.90
18950;DHT22;9608;49.288;8.130;2023-07-20T00:21:25;19.10;99.90
18950;DHT22;9608;49.288;8.130;2023-07-20T00:23:53;19.00;99.90
18950;DHT22;9608;49.288;8.130;2023-07-20T00:26:20;19.00;99.90
18950;DHT22;9608;49.288;8.130;2023-07-20T00:28:46;18.90;99.90
18950;DHT22;9608;49.288;8.130;2023-07-20T00:31:13;18.90;99.90
18950;DHT22;9608;49.288;8.130;2023-07-20T00:33:39;18.90;99.90
18950;DHT22;9608;49.288;8.130;2023-07-20T00:36:06;18.80;99.90
18950;DHT22;9608;49.288;8.130;2023-07-20T00:38:33;18.80;99.90
18950;DHT22;9608;49.288;8.130;2023-07-20T00:41:01;18.80;99.90
18950;DHT22;9608;49.288;8.130;2023-07-20T00:43:28;18.70;99.90
18950;DHT22;9608;49.288;8.130;2023-07-20T00:45:55;18.60;99.90
18950;DHT22;9608;49.288;8.130;2023-07-20T00:48:22;18.60;99.90
18950;DHT22;9608;49.288;8.130;2023-07-20T00:50:49;18.50;99.90
18950;DHT22;9608;49.288;8.130;2023-07-20T00:53:16;18.50;99.90
18950;DHT22;9608;49.288;8.130;2023-07-20T00:55:44;18.40;99.90
18950;DHT22;9608;49.288;8.130;2023-07-20T00:58:12;18.40;99.90
18950;DHT22;9608;49.288;8.130;2023-07-20T01:00:38;18.30;99.90
18950;DHT22;9608;49.288;8.130;2023-07-20T01:03:05;18.30;99.90
18950;DHT22;9608;49.288;8.130;2023-07-20T01:05:38;18.30;99.90
18950;DHT22;9608;49.288;8.130;2023-07-20T01:08:09;18.30;99.90
18950;DHT22;9608;49.288;8.130;2023-07-20T01:10:41;18.20;99.90
18950;DHT22;9608;49.288;8.130;2023-07-20T01:13:11;18.20;99.90
18950;DHT22;9608;49.288;8.130;2023-07-20T01:15:40;18.20;99.90
18950;DHT22;9608;49.288;8.130;2023-07-20T01:18:07;18.20;99.90
18950;DHT22;9608;49.288;8.130;2023-07-20T01:20:34;18.20;99.90
18950;DHT22;9608;49.288;8.130;2023-07-20T01:26:16;18.10;99.90
18950;DHT22;9608;49.288;8.130;2023-07-20T01:29:14;18.10;99.90
18950;DHT22;9608;49.288;8.130;2023-07-20T01:31:45;18.10;99.90
18950;DHT22;9608;49.288;8.130;2023-07-20T01:34:15;18.00;99.90
18950;DHT22;9608;49.288;8.130;2023-07-20T01:36:44;18.00;99.90
18950;DHT22;9608;49.288;8.130;2023-07-20T01:39:12;18.00;99.90
18950;DHT22;9608;49.288;8.130;2023-07-20T01:41:39;18.00;99.90
18950;DHT22;9608;49.288;8.130;2023-07-20T01:44:09;18.00;99.90
18950;DHT22;9608;49.288;8.130;2023-07-20T01:46:36;18.00;99.90
18950;DHT22;9608;49.288;8.130;2023-07-20T01:49:04;18.00;99.90
18950;DHT22;9608;49.288;8.130;2023-07-20T01:51:31;18.00;99.90
18950;DHT22;9608;49.288;8.130;2023-07-20T01:53:57;18.00;99.90
18950;DHT22;9608;49.288;8.130;2023-07-20T01:56:25;18.00;99.90
18950;DHT22;9608;49.288;8.130;2023-07-20T01:58:51;18.00;99.90
18950;DHT22;9608;49.288;8.130;2023-07-20T02:01:18;18.00;99.90
18950;DHT22;9608;49.288;8.130;2023-07-20T02:03:45;18.00;99.90
18950;DHT22;9608;49.288;8.130;2023-07-20T02:06:13;18.00;99.90
18950;DHT22;9608;49.288;8.130;2023-07-20T02:08:39;18.00;99.90
18950;DHT22;9608;49.288;8.130;2023-07-20T02:11:09;18.10;99.90
18950;DHT22;9608;49.288;8.130;2023-07-20T02:13:36;18.10;99.90
18950;DHT22;9608;49.288;8.130;2023-07-20T02:16:03;18.00;99.90
18950;DHT22;9608;49.288;8.130;2023-07-20T02:18:30;18.10;99.90
18950;DHT22;9608;49.288;8.130;2023-07-20T02:20:56;18.00;99.90
18950;DHT22;9608;49.288;8.130;2023-07-20T02:23:24;18.10;99.90
18950;DHT22;9608;49.288;8.130;2023-07-20T02:25:51;18.10;99.90
18950;DHT22;9608;49.288;8.130;2023-07-20T02:28:18;18.00;99.90
18950;DHT22;9608;49.288;8.130;2023-07-20T02:30:45;18.10;99.90
18950;DHT22;9608;49.288;8.130;2023-07-20T02:33:11;18.00;99.90
18950;DHT22;9608;49.288;8.130;2023-07-20T02:35:39;18.00;99.90
18950;DHT22;9608;49.288;8.130;2023-07-20T02:38:06;17.90;99.90
18950;DHT22;9608;49.288;8.130;2023-07-20T02:40:34;17.90;99.90
18950;DHT22;9608;49.288;8.130;2023-07-20T02:43:01;17.90;99.90
18950;DHT22;9608;49.288;8.130;2023-07-20T02:45:28;17.80;99.90
18950;DHT22;9608;49.288;8.130;2023-07-20T02:47:54;17.80;99.90
18950;DHT22;9608;49.288;8.130;2023-07-20T02:50:22;17.70;99.90
18950;DHT22;9608;49.288;8.130;2023-07-20T02:52:49;17.70;99.90
18950;DHT22;9608;49.288;8.130;2023-07-20T02:55:16;17.60;99.90
18950;DHT22;9608;49.288;8.130;2023-07-20T02:57:44;17.60;99.90
18950;DHT22;9608;49.288;8.130;2023-07-20T03:00:12;17.50;99.90
18950;DHT22;9608;49.288;8.130;2023-07-20T03:02:41;17.40;99.90
18950;DHT22;9608;49.288;8.130;2023-07-20T03:05:08;17.20;99.90
18950;DHT22;9608;49.288;8.130;2023-07-20T03:07:35;17.20;99.90
18950;DHT22;9608;49.288;8.130;2023-07-20T03:10:03;17.30;99.90
18950;DHT22;9608;49.288;8.130;2023-07-20T03:12:32;17.20;99.90
18950;DHT22;9608;49.288;8.130;2023-07-20T03:15:01;17.20;99.90
18950;DHT22;9608;49.288;8.130;2023-07-20T03:17:28;17.10;99.90
18950;DHT22;9608;49.288;8.130;2023-07-20T03:19:55;17.10;99.90
18950;DHT22;9608;49.288;8.130;2023-07-20T03:22:21;17.10;99.90
18950;DHT22;9608;49.288;8.130;2023-07-20T03:24:49;17.00;99.90
18950;DHT22;9608;49.288;8.130;2023-07-20T03:27:16;17.00;99.90
18950;DHT22;9608;49.288;8.130;2023-07-20T03:29:43;17.00;99.90
18950;DHT22;9608;49.288;8.130;2023-07-20T03:32:11;17.00;99.90
18950;DHT22;9608;49.288;8.130;2023-07-20T03:34:38;17.00;99.90
18950;DHT22;9608;49.288;8.130;2023-07-20T03:37:05;17.00;99.90
18950;DHT22;9608;49.288;8.130;2023-07-20T03:39:32;17.00;99.90
18950;DHT22;9608;49.288;8.130;2023-07-20T03:41:58;17.00;99.90
18950;DHT22;9608;49.288;8.130;2023-07-20T03:44:25;17.00;99.90
18950;DHT22;9608;49.288;8.130;2023-07-20T03:46:53;17.00;99.90
18950;DHT22;9608;49.288;8.130;2023-07-20T03:49:21;16.90;99.90
18950;DHT22;9608;49.288;8.130;2023-07-20T03:51:48;17.00;99.90
18950;DHT22;9608;49.288;8.130;2023-07-20T03:54:14;16.90;99.90
18950;DHT22;9608;49.288;8.130;2023-07-20T03:56:41;17.00;99.90
18950;DHT22;9608;49.288;8.130;2023-07-20T03:59:07;16.90;99.90
18950;DHT22;9608;49.288;8.130;2023-07-20T04:01:34;17.00;99.90
18950;DHT22;9608;49.288;8.130;2023-07-20T04:04:04;17.10;99.90
18950;DHT22;9608;49.288;8.130;2023-07-20T04:06:32;17.20;99.90
18950;DHT22;9608;49.288;8.130;2023-07-20T04:08:59;17.10;99.90
18950;DHT22;9608;49.288;8.130;2023-07-20T04:11:26;17.20;99.90
18950;DHT22;9608;49.288;8.130;2023-07-20T04:13:52;17.30;99.90
18950;DHT22;9608;49.288;8.130;2023-07-20T04:16:21;17.40;99.90
18950;DHT22;9608;49.288;8.130;2023-07-20T04:18:48;17.50;99.90
18950;DHT22;9608;49.288;8.130;2023-07-20T04:21:15;17.50;99.90
18950;DHT22;9608;49.288;8.130;2023-07-20T04:23:43;17.70;99.90
18950;DHT22;9608;49.288;8.130;2023-07-20T04:26:10;17.90;99.90
18950;DHT22;9608;49.288;8.130;2023-07-20T04:28:38;18.10;99.90
18950;DHT22;9608;49.288;8.130;2023-07-20T04:31:12;18.30;99.90
18950;DHT22;9608;49.288;8.130;2023-07-20T04:33:39;18.40;99.90
18950;DHT22;9608;49.288;8.130;2023-07-20T04:36:06;18.50;99.90
18950;DHT22;9608;49.288;8.130;2023-07-20T04:38:33;18.60;99.90
18950;DHT22;9608;49.288;8.130;2023-07-20T04:41:01;18.80;99.90
18950;DHT22;9608;49.288;8.130;2023-07-20T04:43:29;19.10;99.90
18950;DHT22;9608;49.288;8.130;2023-07-20T04:45:56;19.30;99.90
18950;DHT22;9608;49.288;8.130;2023-07-20T04:48:24;19.60;99.90
18950;DHT22;9608;49.288;8.130;2023-07-20T04:50:51;19.90;99.90
18950;DHT22;9608;49.288;8.130;2023-07-20T04:53:17;20.20;99.90
18950;DHT22;9608;49.288;8.130;2023-07-20T04:55:48;20.50;99.90
18950;DHT22;9608;49.288;8.130;2023-07-20T04:58:17;20.60;99.90
18950;DHT22;9608;49.288;8.130;2023-07-20T05:00:44;20.90;99.90
18950;DHT22;9608;49.288;8.130;2023-07-20T05:03:11;21.10;99.90
18950;DHT22;9608;49.288;8.130;2023-07-20T05:05:38;21.30;99.90
18950;DHT22;9608;49.288;8.130;2023-07-20T05:08:04;21.40;99.90
18950;DHT22;9608;49.288;8.130;2023-07-20T05:10:31;21.60;99.90
18950;DHT22;9608;49.288;8.130;2023-07-20T05:12:58;21.60;99.90
18950;DHT22;9608;49.288;8.130;2023-07-20T05:15:26;21.50;99.90
18950;DHT22;9608;49.288;8.130;2023-07-20T05:17:53;21.60;99.90
18950;DHT22;9608;49.288;8.130;2023-07-20T05:20:20;21.80;99.90
18950;DHT22;9608;49.288;8.130;2023-07-20T05:22:46;21.90;99.90
18950;DHT22;9608;49.288;8.130;2023-07-20T05:25:13;22.10;99.90
18950;DHT22;9608;49.288;8.130;2023-07-20T05:27:43;22.20;99.90
18950;DHT22;9608;49.288;8.130;2023-07-20T05:30:10;22.30;99.90
18950;DHT22;9608;49.288;8.130;2023-07-20T05:32:38;22.40;99.90
18950;DHT22;9608;49.288;8.130;2023-07-20T05:35:07;22.30;99.90
18950;DHT22;9608;49.288;8.130;2023-07-20T05:37:34;22.30;99.90
18950;DHT22;9608;49.288;8.130;2023-07-20T05:40:00;22.40;99.90
18950;DHT22;9608;49.288;8.130;2023-07-20T05:42:27;22.40;99.90
18950;DHT22;9608;49.288;8.130;2023-07-20T05:44:54;22.40;99.90
18950;DHT22;9608;49.288;8.130;2023-07-20T05:47:20;22.20;99.90
18950;DHT22;9608;49.288;8.130;2023-07-20T05:49:49;21.90;99.90
18950;DHT22;9608;49.288;8.130;2023-07-20T05:52:15;21.80;99.90
18950;DHT22;9608;49.288;8.130;2023-07-20T05:54:42;21.60;99.90
18950;DHT22;9608;49.288;8.130;2023-07-20T05:57:09;21.80;99.90
18950;DHT22;9608;49.288;8.130;2023-07-20T05:59:36;22.00;99.90
18950;DHT22;9608;49.288;8.130;2023-07-20T06:02:04;22.10;99.90
18950;DHT22;9608;49.288;8.130;2023-07-20T06:04:31;22.30;99.90
18950;DHT22;9608;49.288;8.130;2023-07-20T06:06:59;22.40;99.90
18950;DHT22;9608;49.288;8.130;2023-07-20T06:09:27;22.40;99.90
18950;DHT22;9608;49.288;8.130;2023-07-20T06:11:55;22.50;99.90
18950;DHT22;9608;49.288;8.130;2023-07-20T06:14:22;22.40;99.90
18950;DHT22;9608;49.288;8.130;2023-07-20T06:16:49;22.40;99.90
18950;DHT22;9608;49.288;8.130;2023-07-20T06:19:16;22.60;99.90
18950;DHT22;9608;49.288;8.130;2023-07-20T06:21:43;22.70;99.90
18950;DHT22;9608;49.288;8.130;2023-07-20T06:24:14;22.80;99.90
18950;DHT22;9608;49.288;8.130;2023-07-20T06:26:41;22.70;99.90
18950;DHT22;9608;49.288;8.130;2023-07-20T06:29:09;22.80;99.90
18950;DHT22;9608;49.288;8.130;2023-07-20T06:31:36;22.30;99.90
18950;DHT22;9608;49.288;8.130;2023-07-20T06:34:04;22.50;99.90
18950;DHT22;9608;49.288;8.130;2023-07-20T06:36:31;22.60;99.90
18950;DHT22;9608;49.288;8.130;2023-07-20T06:38:58;22.50;99.90
18950;DHT22;9608;49.288;8.130;2023-07-20T06:41:27;22.30;99.90
18950;DHT22;9608;49.288;8.130;2023-07-20T06:43:55;22.40;99.90
18950;DHT22;9608;49.288;8.130;2023-07-20T06:46:24;22.30;99.90
18950;DHT22;9608;49.288;8.130;2023-07-20T06:48:52;22.40;99.90
18950;DHT22;9608;49.288;8.130;2023-07-20T06:51:19;22.50;99.90
18950;DHT22;9608;49.288;8.130;2023-07-20T06:53:46;22.60;99.90
18950;DHT22;9608;49.288;8.130;2023-07-20T06:56:13;22.60;99.90
18950;DHT22;9608;49.288;8.130;2023-07-20T06:58:43;22.80;99.90
18950;DHT22;9608;49.288;8.130;2023-07-20T07:01:10;23.20;99.90
18950;DHT22;9608;49.288;8.130;2023-07-20T07:03:38;23.40;99.90
18950;DHT22;9608;49.288;8.130;2023-07-20T07:06:06;23.80;99.90
18950;DHT22;9608;49.288;8.130;2023-07-20T07:08:34;24.20;99.90
18950;DHT22;9608;49.288;8.130;2023-07-20T07:11:02;24.50;99.90
18950;DHT22;9608;49.288;8.130;2023-07-20T07:13:29;25.00;99.90
18950;DHT22;9608;49.288;8.130;2023-07-20T07:16:00;25.40;99.90
18950;DHT22;9608;49.288;8.130;2023-07-20T07:18:27;25.20;99.90
18950;DHT22;9608;49.288;8.130;2023-07-20T07:20:54;25.30;99.90
18950;DHT22;9608;49.288;8.130;2023-07-20T07:23:22;25.30;99.90
18950;DHT22;9608;49.288;8.130;2023-07-20T07:25:49;24.80;99.90
18950;DHT22;9608;49.288;8.130;2023-07-20T07:28:16;24.50;99.90
18950;DHT22;9608;49.288;8.130;2023-07-20T07:30:43;24.70;99.90
18950;DHT22;9608;49.288;8.130;2023-07-20T07:33:14;24.70;99.90
18950;DHT22;9608;49.288;8.130;2023-07-20T07:35:41;24.50;99.90
18950;DHT22;9608;49.288;8.130;2023-07-20T07:38:10;24.50;99.90
18950;DHT22;9608;49.288;8.130;2023-07-20T07:40:38;24.50;99.90
18950;DHT22;9608;49.288;8.130;2023-07-20T07:43:05;24.30;99.90
18950;DHT22;9608;49.288;8.130;2023-07-20T07:45:35;24.30;99.90
18950;DHT22;9608;49.288;8.130;2023-07-20T07:48:04;24.00;99.90
18950;DHT22;9608;49.288;8.130;2023-07-20T07:50:36;24.20;99.90
18950;DHT22;9608;49.288;8.130;2023-07-20T07:53:05;24.80;99.90
18950;DHT22;9608;49.288;8.130;2023-07-20T07:55:34;25.30;99.90
18950;DHT22;9608;49.288;8.130;2023-07-20T07:58:02;25.80;99.90
18950;DHT22;9608;49.288;8.130;2023-07-20T08:00:29;25.90;99.90
18950;DHT22;9608;49.288;8.130;2023-07-20T08:03:02;25.90;99.90
18950;DHT22;9608;49.288;8.130;2023-07-20T08:05:30;25.50;99.90
18950;DHT22;9608;49.288;8.130;2023-07-20T08:07:59;25.10;99.90
18950;DHT22;9608;49.288;8.130;2023-07-20T08:10:26;25.10;99.90
18950;DHT22;9608;49.288;8.130;2023-07-20T08:12:53;25.40;99.90
18950;DHT22;9608;49.288;8.130;2023-07-20T08:15:21;25.60;99.90
18950;DHT22;9608;49.288;8.130;2023-07-20T08:17:50;26.00;99.90
18950;DHT22;9608;49.288;8.130;2023-07-20T08:20:18;26.10;99.90
18950;DHT22;9608;49.288;8.130;2023-07-20T08:22:52;25.40;99.90
18950;DHT22;9608;49.288;8.130;2023-07-20T08:25:24;25.10;99.90
18950;DHT22;9608;49.288;8.130;2023-07-20T08:27:52;24.70;99.90
18950;DHT22;9608;49.288;8.130;2023-07-20T08:30:21;24.90;99.90
18950;DHT22;9608;49.288;8.130;2023-07-20T08:32:49;25.20;99.90
18950;DHT22;9608;49.288;8.130;2023-07-20T08:35:17;25.20;99.90
18950;DHT22;9608;49.288;8.130;2023-07-20T08:37:45;25.30;99.90
18950;DHT22;9608;49.288;8.130;2023-07-20T08:40:14;25.40;99.90
18950;DHT22;9608;49.288;8.130;2023-07-20T08:42:43;25.60;99.90
18950;DHT22;9608;49.288;8.130;2023-07-20T08:45:13;26.00;99.90
18950;DHT22;9608;49.288;8.130;2023-07-20T08:47:41;26.10;99.90
18950;DHT22;9608;49.288;8.130;2023-07-20T08:50:11;26.30;99.90
18950;DHT22;9608;49.288;8.130;2023-07-20T08:52:39;26.70;99.90
18950;DHT22;9608;49.288;8.130;2023-07-20T08:55:06;27.20;99.50
18950;DHT22;9608;49.288;8.130;2023-07-20T08:57:34;27.40;99.30
18950;DHT22;9608;49.288;8.130;2023-07-20T09:00:06;27.40;99.80
18950;DHT22;9608;49.288;8.130;2023-07-20T09:02:39;27.30;99.70
18950;DHT22;9608;49.288;8.130;2023-07-20T09:05:08;27.40;99.90
18950;DHT22;9608;49.288;8.130;2023-07-20T09:07:35;27.00;99.30
18950;DHT22;9608;49.288;8.130;2023-07-20T09:10:02;26.50;99.90
18950;DHT22;9608;49.288;8.130;2023-07-20T09:12:31;26.40;99.60
18950;DHT22;9608;49.288;8.130;2023-07-20T09:14:59;26.80;99.10
18950;DHT22;9608;49.288;8.130;2023-07-20T09:17:28;26.80;99.30
18950;DHT22;9608;49.288;8.130;2023-07-20T09:19:54;26.80;98.90
18950;DHT22;9608;49.288;8.130;2023-07-20T09:22:21;26.60;99.70
18950;DHT22;9608;49.288;8.130;2023-07-20T09:24:48;26.40;99.10
18950;DHT22;9608;49.288;8.130;2023-07-20T09:27:18;26.20;98.80
18950;DHT22;9608;49.288;8.130;2023-07-20T09:29:49;26.30;99.70
18950;DHT22;9608;49.288;8.130;2023-07-20T09:32:18;26.70;99.80
18950;DHT22;9608;49.288;8.130;2023-07-20T09:34:48;26.70;98.30
18950;DHT22;9608;49.288;8.130;2023-07-20T09:37:20;26.60;99.10
18950;DHT22;9608;49.288;8.130;2023-07-20T09:39:48;26.80;99.90
18950;DHT22;9608;49.288;8.130;2023-07-20T09:42:15;27.10;99.90
18950;DHT22;9608;49.288;8.130;2023-07-20T09:44:44;27.40;99.90
18950;DHT22;9608;49.288;8.130;2023-07-20T09:47:11;27.90;98.50
18950;DHT22;9608;49.288;8.130;2023-07-20T09:49:39;28.10;96.60
18950;DHT22;9608;49.288;8.130;2023-07-20T09:52:08;27.50;96.10
18950;DHT22;9608;49.288;8.130;2023-07-20T09:54:37;27.10;96.80
18950;DHT22;9608;49.288;8.130;2023-07-20T09:57:07;26.90;96.40
18950;DHT22;9608;49.288;8.130;2023-07-20T09:59:34;26.30;97.20
18950;DHT22;9608;49.288;8.130;2023-07-20T10:02:03;26.40;97.60
18950;DHT22;9608;49.288;8.130;2023-07-20T10:04:34;26.60;97.60
18950;DHT22;9608;49.288;8.130;2023-07-20T10:07:02;27.20;97.30
18950;DHT22;9608;49.288;8.130;2023-07-20T10:09:35;27.60;96.80
18950;DHT22;9608;49.288;8.130;2023-07-20T10:12:04;28.00;96.40
18950;DHT22;9608;49.288;8.130;2023-07-20T10:14:32;28.20;95.40
18950;DHT22;9608;49.288;8.130;2023-07-20T10:17:01;28.30;95.40
18950;DHT22;9608;49.288;8.130;2023-07-20T10:19:34;28.10;95.00
18950;DHT22;9608;49.288;8.130;2023-07-20T10:22:10;28.00;93.60
18950;DHT22;9608;49.288;8.130;2023-07-20T10:24:39;27.60;93.30
18950;DHT22;9608;49.288;8.130;2023-07-20T10:27:08;27.40;94.40
18950;DHT22;9608;49.288;8.130;2023-07-20T10:29:34;27.80;94.60
18950;DHT22;9608;49.288;8.130;2023-07-20T10:32:01;27.80;94.00
18950;DHT22;9608;49.288;8.130;2023-07-20T10:34:28;27.90;94.10
18950;DHT22;9608;49.288;8.130;2023-07-20T10:36:55;28.10;93.70
18950;DHT22;9608;49.288;8.130;2023-07-20T10:39:23;28.40;91.80
18950;DHT22;9608;49.288;8.130;2023-07-20T10:41:59;28.40;92.50
18950;DHT22;9608;49.288;8.130;2023-07-20T10:44:26;29.00;93.00
18950;DHT22;9608;49.288;8.130;2023-07-20T10:46:59;29.40;92.30
18950;DHT22;9608;49.288;8.130;2023-07-20T10:49:26;30.00;91.50
18950;DHT22;9608;49.288;8.130;2023-07-20T10:51:57;30.30;86.80
18950;DHT22;9608;49.288;8.130;2023-07-20T10:54:34;30.50;85.90
18950;DHT22;9608;49.288;8.130;2023-07-20T10:57:28;30.90;82.80
18950;DHT22;9608;49.288;8.130;2023-07-20T11:00:08;30.80;83.10
18950;DHT22;9608;49.288;8.130;2023-07-20T11:02:44;31.00;80.60
18950;DHT22;9608;49.288;8.130;2023-07-20T11:05:33;31.30;77.70
18950;DHT22;9608;49.288;8.130;2023-07-20T11:08:03;30.70;81.50
18950;DHT22;9608;49.288;8.130;2023-07-20T11:10:30;30.10;82.30
18950;DHT22;9608;49.288;8.130;2023-07-20T11:13:18;30.00;79.50
18950;DHT22;9608;49.288;8.130;2023-07-20T11:15:46;29.60;81.70
18950;DHT22;9608;49.288;8.130;2023-07-20T11:18:13;28.90;83.20
18950;DHT22;9608;49.288;8.130;2023-07-20T11:20:41;28.50;82.20
18950;DHT22;9608;49.288;8.130;2023-07-20T11:23:09;28.40;81.70
18950;DHT22;9608;49.288;8.130;2023-07-20T11:25:37;28.30;84.90
18950;DHT22;9608;49.288;8.130;2023-07-20T11:28:07;28.50;80.70
18950;DHT22;9608;49.288;8.130;2023-07-20T11:30:36;28.50;80.70
18950;DHT22;9608;49.288;8.130;2023-07-20T11:33:02;28.20;81.90
18950;DHT22;9608;49.288;8.130;2023-07-20T11:35:29;27.90;82.60
18950;DHT22;9608;49.288;8.130;2023-07-20T11:37:56;27.70;82.30
18950;DHT22;9608;49.288;8.130;2023-07-20T11:40:23;27.60;80.70
18950;DHT22;9608;49.288;8.130;2023-07-20T11:42:50;27.50;80.60
18950;DHT22;9608;49.288;8.130;2023-07-20T11:45:18;27.30;81.80
18950;DHT22;9608;49.288;8.130;2023-07-20T11:47:47;27.40;81.90
18950;DHT22;9608;49.288;8.130;2023-07-20T11:50:13;27.60;82.30
18950;DHT22;9608;49.288;8.130;2023-07-20T11:52:41;27.50;81.10
18950;DHT22;9608;49.288;8.130;2023-07-20T11:55:09;27.40;81.00
18950;DHT22;9608;49.288;8.130;2023-07-20T11:57:36;27.80;82.30
18950;DHT22;9608;49.288;8.130;2023-07-20T12:00:05;28.10;79.30
18950;DHT22;9608;49.288;8.130;2023-07-20T12:02:37;27.80;76.40
18950;DHT22;9608;49.288;8.130;2023-07-20T12:05:06;27.80;75.20
18950;DHT22;9608;49.288;8.130;2023-07-20T12:07:35;27.90;76.40
18950;DHT22;9608;49.288;8.130;2023-07-20T12:10:05;28.10;75.70
18950;DHT22;9608;49.288;8.130;2023-07-20T12:12:32;28.00;76.10
18950;DHT22;9608;49.288;8.130;2023-07-20T12:15:15;27.90;76.40
18950;DHT22;9608;49.288;8.130;2023-07-20T12:17:43;28.20;76.90
18950;DHT22;9608;49.288;8.130;2023-07-20T12:20:12;28.90;75.40
18950;DHT22;9608;49.288;8.130;2023-07-20T12:22:39;28.80;71.10
18950;DHT22;9608;49.288;8.130;2023-07-20T12:25:07;29.10;71.20
18950;DHT22;9608;49.288;8.130;2023-07-20T12:27:36;29.40;71.30
18950;DHT22;9608;49.288;8.130;2023-07-20T12:30:04;30.00;72.10
18950;DHT22;9608;49.288;8.130;2023-07-20T12:32:31;30.10;70.10
18950;DHT22;9608;49.288;8.130;2023-07-20T12:34:58;29.70;69.70
18950;DHT22;9608;49.288;8.130;2023-07-20T12:37:27;29.90;70.90
18950;DHT22;9608;49.288;8.130;2023-07-20T12:39:53;30.30;69.80
18950;DHT22;9608;49.288;8.130;2023-07-20T12:42:20;30.60;68.90
18950;DHT22;9608;49.288;8.130;2023-07-20T12:44:49;30.60;68.20
18950;DHT22;9608;49.288;8.130;2023-07-20T12:47:16;30.30;66.60
18950;DHT22;9608;49.288;8.130;2023-07-20T12:49:43;30.00;66.30
18950;DHT22;9608;49.288;8.130;2023-07-20T12:52:10;30.10;67.20
18950;DHT22;9608;49.288;8.130;2023-07-20T12:54:38;29.70;68.50
18950;DHT22;9608;49.288;8.130;2023-07-20T12:57:06;29.40;69.00
18950;DHT22;9608;49.288;8.130;2023-07-20T12:59:32;29.40;69.40
18950;DHT22;9608;49.288;8.130;2023-07-20T13:01:59;29.40;69.40
18950;DHT22;9608;49.288;8.130;2023-07-20T13:04:26;29.30;69.30
18950;DHT22;9608;49.288;8.130;2023-07-20T13:06:53;29.10;67.30
18950;DHT22;9608;49.288;8.130;2023-07-20T13:09:20;28.80;67.70
18950;DHT22;9608;49.288;8.130;2023-07-20T13:11:48;28.70;69.60
18950;DHT22;9608;49.288;8.130;2023-07-20T13:14:14;28.80;70.40
18950;DHT22;9608;49.288;8.130;2023-07-20T13:16:41;29.00;68.90
18950;DHT22;9608;49.288;8.130;2023-07-20T13:19:08;28.80;69.30
18950;DHT22;9608;49.288;8.130;2023-07-20T13:21:34;28.70;68.90
18950;DHT22;9608;49.288;8.130;2023-07-20T13:24:01;28.70;67.60
18950;DHT22;9608;49.288;8.130;2023-07-20T13:26:29;28.70;71.50
18950;DHT22;9608;49.288;8.130;2023-07-20T13:28:57;28.50;72.10
18950;DHT22;9608;49.288;8.130;2023-07-20T13:31:24;28.50;66.20
18950;DHT22;9608;49.288;8.130;2023-07-20T13:33:51;28.40;65.90
18950;DHT22;9608;49.288;8.130;2023-07-20T13:36:19;28.70;67.30
18950;DHT22;9608;49.288;8.130;2023-07-20T13:38:46;28.70;66.40
18950;DHT22;9608;49.288;8.130;2023-07-20T13:41:14;28.60;67.30
18950;DHT22;9608;49.288;8.130;2023-07-20T13:43:41;27.90;68.50
18950;DHT22;9608;49.288;8.130;2023-07-20T13:46:09;27.80;68.80
18950;DHT22;9608;49.288;8.130;2023-07-20T13:48:36;28.10;68.50
18950;DHT22;9608;49.288;8.130;2023-07-20T13:51:03;28.10;67.70
18950;DHT22;9608;49.288;8.130;2023-07-20T13:53:30;28.00;67.90
18950;DHT22;9608;49.288;8.130;2023-07-20T13:55:57;27.80;69.00
18950;DHT22;9608;49.288;8.130;2023-07-20T13:58:24;27.80;69.70
18950;DHT22;9608;49.288;8.130;2023-07-20T14:00:51;28.00;69.20
18950;DHT22;9608;49.288;8.130;2023-07-20T14:03:19;28.20;67.00
18950;DHT22;9608;49.288;8.130;2023-07-20T14:05:46;28.30;66.70
18950;DHT22;9608;49.288;8.130;2023-07-20T14:08:14;28.40;66.40
18950;DHT22;9608;49.288;8.130;2023-07-20T14:10:41;28.40;65.10
18950;DHT22;9608;49.288;8.130;2023-07-20T14:13:08;28.50;65.50
18950;DHT22;9608;49.288;8.130;2023-07-20T14:15:35;28.60;63.40
18950;DHT22;9608;49.288;8.130;2023-07-20T14:18:01;28.80;63.40
18950;DHT22;9608;49.288;8.130;2023-07-20T14:20:29;29.10;62.90
18950;DHT22;9608;49.288;8.130;2023-07-20T14:22:56;29.20;62.70
18950;DHT22;9608;49.288;8.130;2023-07-20T14:25:23;29.10;62.40
18950;DHT22;9608;49.288;8.130;2023-07-20T14:27:50;29.30;63.70
18950;DHT22;9608;49.288;8.130;2023-07-20T14:30:16;29.80;63.00
18950;DHT22;9608;49.288;8.130;2023-07-20T14:32:43;30.20;61.40
18950;DHT22;9608;49.288;8.130;2023-07-20T14:35:10;30.40;61.60
18950;DHT22;9608;49.288;8.130;2023-07-20T14:37:38;30.60;60.30
18950;DHT22;9608;49.288;8.130;2023-07-20T14:40:06;30.40;59.40
18950;DHT22;9608;49.288;8.130;2023-07-20T14:42:33;30.10;57.80
18950;DHT22;9608;49.288;8.130;2023-07-20T14:45:00;29.40;57.00
18950;DHT22;9608;49.288;8.130;2023-07-20T14:47:28;29.10;58.60
18950;DHT22;9608;49.288;8.130;2023-07-20T14:49:57;28.90;59.90
18950;DHT22;9608;49.288;8.130;2023-07-20T14:52:24;29.00;60.70
18950;DHT22;9608;49.288;8.130;2023-07-20T14:54:52;29.10;60.50
18950;DHT22;9608;49.288;8.130;2023-07-20T14:57:19;29.00;60.20
18950;DHT22;9608;49.288;8.130;2023-07-20T14:59:48;28.90;60.20
18950;DHT22;9608;49.288;8.130;2023-07-20T15:02:15;29.10;61.40
18950;DHT22;9608;49.288;8.130;2023-07-20T15:04:46;29.10;60.50
18950;DHT22;9608;49.288;8.130;2023-07-20T15:07:12;29.20;60.90
18950;DHT22;9608;49.288;8.130;2023-07-20T15:09:39;29.20;59.80
18950;DHT22;9608;49.288;8.130;2023-07-20T15:12:08;29.00;59.90
18950;DHT22;9608;49.288;8.130;2023-07-20T15:14:39;28.80;60.10
18950;DHT22;9608;49.288;8.130;2023-07-20T15:17:06;28.70;61.00
18950;DHT22;9608;49.288;8.130;2023-07-20T15:19:33;28.80;60.80
18950;DHT22;9608;49.288;8.130;2023-07-20T15:22:01;28.90;60.10
18950;DHT22;9608;49.288;8.130;2023-07-20T15:24:28;28.90;61.20
18950;DHT22;9608;49.288;8.130;2023-07-20T15:26:55;29.20;59.80
18950;DHT22;9608;49.288;8.130;2023-07-20T15:29:24;29.20;59.70
18950;DHT22;9608;49.288;8.130;2023-07-20T15:31:51;29.50;59.80
18950;DHT22;9608;49.288;8.130;2023-07-20T15:34:18;29.80;59.70
18950;DHT22;9608;49.288;8.130;2023-07-20T15:36:45;29.80;59.70
18950;DHT22;9608;49.288;8.130;2023-07-20T15:39:12;29.70;59.30
18950;DHT22;9608;49.288;8.130;2023-07-20T15:41:39;29.10;60.50
18950;DHT22;9608;49.288;8.130;2023-07-20T15:44:06;29.20;60.00
18950;DHT22;9608;49.288;8.130;2023-07-20T15:46:48;29.40;59.40
18950;DHT22;9608;49.288;8.130;2023-07-20T15:49:15;29.40;59.70
18950;DHT22;9608;49.288;8.130;2023-07-20T15:51:43;29.20;59.90
18950;DHT22;9608;49.288;8.130;2023-07-20T15:54:12;29.20;61.20